Heydar Aliyev — 9HFS7 — position and weather

sailwx.info

Track history (hours):
 
Tides and Currents Weather Stations Pressure Air Temp Water Temp Dewpoint Dewpoint Depression Visibility Wind Speed Wind Dir Waves Ship Positions

Heydar Aliyev

Last reported at 2015-May-11 06:22 UTC. Time now 2015-May-25 19:33 UTC.
Position N 36°13' E 027°03'.
Warning: this ship's position is 14 days out of date.

Length 274 m; draft 16.8 m.

Type: Tanker. MMSI: 215213000.

Date/timePositionNaut miles runAvg speedWind from/ knotsBaromVisibWave heightAir tempDewpointWater temp
2015-May-11 06:22N 36°13' E 027°03'1312.3
2015-May-11 05:19N 36°23' E 026°52'1312.2
2015-May-11 04:15N 36°32' E 026°41'1112.7
2015-May-11 03:21N 36°40' E 026°31'1113.1
2015-May-11 02:33N 36°48' E 026°23'1312.5
2015-May-11 01:31N 36°58' E 026°12'2612.6
2015-May-10 23:28N 37°21' E 025°57'1112.2
2015-May-10 22:33N 37°31' E 025°52'1212.2
2015-May-10 21:33N 37°42' E 025°45'264 7.5
2015-May-09 10:08N 41°15' E 029°08'4 6.5
2015-May-09 09:30N 41°19' E 029°09'8 7.3
2015-May-09 08:24N 41°26' E 029°13'3 3.7
2015-May-09 07:32N 41°29' E 029°15'0 0.4
2015-May-09 06:30N 41°30' E 029°15'24110.3
2015-May-08 07:06N 43°36' E 033°53'2012.7
2015-May-08 05:32N 43°46' E 034°17'1312.9
2015-May-08 04:33N 43°53' E 034°32'1312.8
2015-May-08 03:33N 43°59' E 034°47'1312.7
2015-May-08 02:33N 44°06' E 035°02'1312.7
2015-May-08 01:33N 44°13' E 035°17'1312.8
2015-May-08 00:33N 44°20' E 035°32'1312.7
2015-May-07 23:33N 44°27' E 035°47'2712.8
2015-May-07 21:25N 44°42' E 036°19'1112.4
2015-May-07 20:32N 44°47' E 036°32'9 8.9
2015-May-07 19:33N 44°52' E 036°42'0 0.2
2015-May-07 18:33N 44°52' E 036°43'0 0.1
2015-May-07 17:33N 44°52' E 036°43'0 0.0
2015-May-07 16:33N 44°52' E 036°43'0 0.0
2015-May-07 15:33N 44°52' E 036°43'0 0.0
2015-May-07 14:33N 44°52' E 036°43'0 0.0
2015-May-07 13:33N 44°52' E 036°43'0 0.0
2015-May-07 12:33N 44°52' E 036°43'0 0.0
2015-May-07 11:33N 44°52' E 036°43'0 0.0
2015-May-07 10:33N 44°52' E 036°43'0 0.0
2015-May-07 09:33N 44°52' E 036°43'0 0.0
2015-May-07 08:33N 44°52' E 036°43'0 0.0
2015-May-07 07:33N 44°52' E 036°43'0 0.0
2015-May-07 06:33N 44°52' E 036°43'0 0.0
2015-May-07 05:33N 44°52' E 036°43'0 0.1
2015-May-07 04:27N 44°52' E 036°43'0 0.1
2015-May-07 03:33N 44°52' E 036°43'0 0.0
2015-May-07 02:33N 44°52' E 036°43'0 0.0
2015-May-06 23:15N 44°52' E 036°43'0 0.0
2015-May-06 22:15N 44°52' E 036°43'0 0.1
2015-May-06 21:33N 44°52' E 036°43'0 0.1
2015-May-06 20:33N 44°52' E 036°43'0 0.0
2015-May-06 14:15N 44°52' E 036°43'0 0.0
2015-May-05 13:12N 44°52' E 036°43'  
Track history (hours):
 
Tides and Currents Weather Stations Pressure Air Temp Water Temp Dewpoint Dewpoint Depression Visibility Wind Speed Wind Dir Waves Ship Positions

Heydar Aliyev

Last reported at 2015-May-11 06:22 UTC. Time now 2015-May-25 19:33 UTC.
Position N 36°13' E 027°03'.
Warning: this ship's position is 14 days out of date.

Length 274 m; draft 16.8 m.

Type: Tanker. MMSI: 215213000.

Date/timePositionNaut miles runAvg speedWind from/ knotsBaromVisibWave heightAir tempDewpointWater temp
2015-May-11 06:22N 36°13' E 027°03'1312.3
2015-May-11 05:19N 36°23' E 026°52'1312.2
2015-May-11 04:15N 36°32' E 026°41'1112.7
2015-May-11 03:21N 36°40' E 026°31'1113.1
2015-May-11 02:33N 36°48' E 026°23'1312.5
2015-May-11 01:31N 36°58' E 026°12'2612.6
2015-May-10 23:28N 37°21' E 025°57'1112.2
2015-May-10 22:33N 37°31' E 025°52'1212.2
2015-May-10 21:33N 37°42' E 025°45'264 7.5
2015-May-09 10:08N 41°15' E 029°08'4 6.5
2015-May-09 09:30N 41°19' E 029°09'8 7.3
2015-May-09 08:24N 41°26' E 029°13'3 3.7
2015-May-09 07:32N 41°29' E 029°15'0 0.4
2015-May-09 06:30N 41°30' E 029°15'24110.3
2015-May-08 07:06N 43°36' E 033°53'2012.7
2015-May-08 05:32N 43°46' E 034°17'1312.9
2015-May-08 04:33N 43°53' E 034°32'1312.8
2015-May-08 03:33N 43°59' E 034°47'1312.7
2015-May-08 02:33N 44°06' E 035°02'1312.7
2015-May-08 01:33N 44°13' E 035°17'1312.8
2015-May-08 00:33N 44°20' E 035°32'1312.7
2015-May-07 23:33N 44°27' E 035°47'2712.8
2015-May-07 21:25N 44°42' E 036°19'1112.4
2015-May-07 20:32N 44°47' E 036°32'9 8.9
2015-May-07 19:33N 44°52' E 036°42'0 0.2
2015-May-07 18:33N 44°52' E 036°43'0 0.1
2015-May-07 17:33N 44°52' E 036°43'0 0.0
2015-May-07 16:33N 44°52' E 036°43'0 0.0
2015-May-07 15:33N 44°52' E 036°43'0 0.0
2015-May-07 14:33N 44°52' E 036°43'0 0.0
2015-May-07 13:33N 44°52' E 036°43'0 0.0
2015-May-07 12:33N 44°52' E 036°43'0 0.0
2015-May-07 11:33N 44°52' E 036°43'0 0.0
2015-May-07 10:33N 44°52' E 036°43'0 0.0
2015-May-07 09:33N 44°52' E 036°43'0 0.0
2015-May-07 08:33N 44°52' E 036°43'0 0.0
2015-May-07 07:33N 44°52' E 036°43'0 0.0
2015-May-07 06:33N 44°52' E 036°43'0 0.0
2015-May-07 05:33N 44°52' E 036°43'0 0.1
2015-May-07 04:27N 44°52' E 036°43'0 0.1
2015-May-07 03:33N 44°52' E 036°43'0 0.0
2015-May-07 02:33N 44°52' E 036°43'0 0.0
2015-May-06 23:15N 44°52' E 036°43'0 0.0
2015-May-06 22:15N 44°52' E 036°43'0 0.1
2015-May-06 21:33N 44°52' E 036°43'0 0.1
2015-May-06 20:33N 44°52' E 036°43'0 0.0
2015-May-06 14:15N 44°52' E 036°43'0 0.0
2015-May-05 13:12N 44°52' E 036°43'  

Dump ship's entire track history